sensor_id;sensor_type;location;lat;lon;timestamp;P1;durP1;ratioP1;P2;durP2;ratioP2
73296;SDS011;61524;50.938;11.396;2023-06-01T00:00:14;5.03;;;2.13;;
73296;SDS011;61524;50.938;11.396;2023-06-01T00:02:40;5.40;;;2.25;;
73296;SDS011;61524;50.938;11.396;2023-06-01T00:05:06;6.05;;;3.22;;
73296;SDS011;61524;50.938;11.396;2023-06-01T00:07:32;4.80;;;2.10;;
73296;SDS011;61524;50.938;11.396;2023-06-01T00:09:58;5.00;;;2.33;;
73296;SDS011;61524;50.938;11.396;2023-06-01T00:12:24;4.15;;;2.00;;
73296;SDS011;61524;50.938;11.396;2023-06-01T00:14:50;3.92;;;2.08;;
73296;SDS011;61524;50.938;11.396;2023-06-01T00:17:16;5.95;;;2.25;;
73296;SDS011;61524;50.938;11.396;2023-06-01T00:19:41;4.82;;;1.98;;
73296;SDS011;61524;50.938;11.396;2023-06-01T00:22:10;5.55;;;2.15;;
73296;SDS011;61524;50.938;11.396;2023-06-01T00:24:35;5.40;;;2.10;;
73296;SDS011;61524;50.938;11.396;2023-06-01T00:27:02;6.03;;;2.42;;
73296;SDS011;61524;50.938;11.396;2023-06-01T00:29:28;4.78;;;2.13;;
73296;SDS011;61524;50.938;11.396;2023-06-01T00:31:54;5.03;;;2.15;;
73296;SDS011;61524;50.938;11.396;2023-06-01T00:34:19;4.20;;;2.13;;
73296;SDS011;61524;50.938;11.396;2023-06-01T00:36:45;6.15;;;2.30;;
73296;SDS011;61524;50.938;11.396;2023-06-01T00:39:10;5.07;;;2.72;;
73296;SDS011;61524;50.938;11.396;2023-06-01T00:41:36;4.70;;;2.15;;
73296;SDS011;61524;50.938;11.396;2023-06-01T00:44:01;7.75;;;2.70;;
73296;SDS011;61524;50.938;11.396;2023-06-01T00:46:27;6.72;;;2.28;;
73296;SDS011;61524;50.938;11.396;2023-06-01T00:48:55;4.97;;;2.10;;
73296;SDS011;61524;50.938;11.396;2023-06-01T00:51:21;4.93;;;2.42;;
73296;SDS011;61524;50.938;11.396;2023-06-01T00:53:47;4.15;;;2.22;;
73296;SDS011;61524;50.938;11.396;2023-06-01T00:56:13;5.45;;;2.67;;
73296;SDS011;61524;50.938;11.396;2023-06-01T00:58:39;4.15;;;1.73;;
73296;SDS011;61524;50.938;11.396;2023-06-01T01:01:05;5.50;;;2.22;;
73296;SDS011;61524;50.938;11.396;2023-06-01T01:03:30;4.80;;;2.38;;
73296;SDS011;61524;50.938;11.396;2023-06-01T01:08:51;6.28;;;2.05;;
73296;SDS011;61524;50.938;11.396;2023-06-01T01:11:32;6.28;;;2.15;;
73296;SDS011;61524;50.938;11.396;2023-06-01T01:17:50;4.40;;;2.13;;
73296;SDS011;61524;50.938;11.396;2023-06-01T01:25:52;3.88;;;1.70;;
73296;SDS011;61524;50.938;11.396;2023-06-01T01:30:56;7.53;;;2.13;;
73296;SDS011;61524;50.938;11.396;2023-06-01T01:33:24;4.93;;;2.40;;
73296;SDS011;61524;50.938;11.396;2023-06-01T01:35:52;4.47;;;2.28;;
73296;SDS011;61524;50.938;11.396;2023-06-01T01:38:18;6.22;;;2.40;;
73296;SDS011;61524;50.938;11.396;2023-06-01T01:40:44;5.20;;;2.38;;
73296;SDS011;61524;50.938;11.396;2023-06-01T01:43:09;5.05;;;2.60;;
73296;SDS011;61524;50.938;11.396;2023-06-01T01:45:35;4.75;;;2.58;;
73296;SDS011;61524;50.938;11.396;2023-06-01T01:50:32;3.72;;;2.40;;
73296;SDS011;61524;50.938;11.396;2023-06-01T01:53:20;4.88;;;2.47;;
73296;SDS011;61524;50.938;11.396;2023-06-01T01:55:50;5.45;;;1.98;;
73296;SDS011;61524;50.938;11.396;2023-06-01T01:58:17;4.80;;;2.50;;
73296;SDS011;61524;50.938;11.396;2023-06-01T02:00:43;4.30;;;2.20;;
73296;SDS011;61524;50.938;11.396;2023-06-01T02:03:15;3.60;;;2.00;;
73296;SDS011;61524;50.938;11.396;2023-06-01T02:05:41;3.70;;;1.83;;
73296;SDS011;61524;50.938;11.396;2023-06-01T02:08:07;4.85;;;1.95;;
73296;SDS011;61524;50.938;11.396;2023-06-01T02:10:32;6.03;;;2.08;;
73296;SDS011;61524;50.938;11.396;2023-06-01T02:12:58;6.20;;;2.15;;
73296;SDS011;61524;50.938;11.396;2023-06-01T02:15:23;6.18;;;2.38;;
73296;SDS011;61524;50.938;11.396;2023-06-01T02:17:49;4.72;;;2.28;;
73296;SDS011;61524;50.938;11.396;2023-06-01T02:20:15;4.72;;;2.13;;
73296;SDS011;61524;50.938;11.396;2023-06-01T02:22:40;5.28;;;1.92;;
73296;SDS011;61524;50.938;11.396;2023-06-01T02:25:06;4.45;;;2.22;;
73296;SDS011;61524;50.938;11.396;2023-06-01T02:27:31;3.88;;;1.95;;
73296;SDS011;61524;50.938;11.396;2023-06-01T02:29:57;5.57;;;2.50;;
73296;SDS011;61524;50.938;11.396;2023-06-01T02:32:22;3.35;;;1.77;;
73296;SDS011;61524;50.938;11.396;2023-06-01T02:34:48;5.40;;;2.50;;
73296;SDS011;61524;50.938;11.396;2023-06-01T02:37:13;5.53;;;1.92;;
73296;SDS011;61524;50.938;11.396;2023-06-01T02:39:39;4.88;;;2.28;;
73296;SDS011;61524;50.938;11.396;2023-06-01T02:42:04;5.18;;;2.40;;
73296;SDS011;61524;50.938;11.396;2023-06-01T02:44:30;5.40;;;2.47;;
73296;SDS011;61524;50.938;11.396;2023-06-01T02:46:55;6.13;;;2.40;;
73296;SDS011;61524;50.938;11.396;2023-06-01T02:49:21;4.45;;;2.22;;
73296;SDS011;61524;50.938;11.396;2023-06-01T02:51:46;5.65;;;2.40;;
73296;SDS011;61524;50.938;11.396;2023-06-01T02:54:12;5.05;;;2.03;;
73296;SDS011;61524;50.938;11.396;2023-06-01T02:56:37;5.97;;;2.35;;
73296;SDS011;61524;50.938;11.396;2023-06-01T02:59:02;6.57;;;2.20;;
73296;SDS011;61524;50.938;11.396;2023-06-01T03:01:28;7.15;;;2.50;;
73296;SDS011;61524;50.938;11.396;2023-06-01T03:04:00;10.40;;;3.03;;
73296;SDS011;61524;50.938;11.396;2023-06-01T03:06:29;3.92;;;1.90;;
73296;SDS011;61524;50.938;11.396;2023-06-01T03:09:02;4.18;;;2.17;;
73296;SDS011;61524;50.938;11.396;2023-06-01T03:11:28;5.75;;;2.40;;
73296;SDS011;61524;50.938;11.396;2023-06-01T03:13:54;5.90;;;1.92;;
73296;SDS011;61524;50.938;11.396;2023-06-01T03:16:22;4.47;;;2.22;;
73296;SDS011;61524;50.938;11.396;2023-06-01T03:18:48;5.07;;;2.00;;
73296;SDS011;61524;50.938;11.396;2023-06-01T03:21:13;4.75;;;2.25;;
73296;SDS011;61524;50.938;11.396;2023-06-01T03:23:39;4.60;;;2.10;;
73296;SDS011;61524;50.938;11.396;2023-06-01T03:26:09;5.53;;;2.42;;
73296;SDS011;61524;50.938;11.396;2023-06-01T03:28:35;5.05;;;2.38;;
73296;SDS011;61524;50.938;11.396;2023-06-01T03:31:00;4.22;;;2.17;;
73296;SDS011;61524;50.938;11.396;2023-06-01T03:33:27;4.30;;;2.30;;
73296;SDS011;61524;50.938;11.396;2023-06-01T03:35:52;5.45;;;2.20;;
73296;SDS011;61524;50.938;11.396;2023-06-01T03:38:18;6.00;;;2.25;;
73296;SDS011;61524;50.938;11.396;2023-06-01T03:40:44;3.60;;;1.52;;
73296;SDS011;61524;50.938;11.396;2023-06-01T03:43:09;7.35;;;2.65;;
73296;SDS011;61524;50.938;11.396;2023-06-01T03:45:36;4.28;;;2.42;;
73296;SDS011;61524;50.938;11.396;2023-06-01T03:48:01;6.43;;;1.98;;
73296;SDS011;61524;50.938;11.396;2023-06-01T03:50:27;6.45;;;2.60;;
73296;SDS011;61524;50.938;11.396;2023-06-01T03:52:52;3.90;;;1.80;;
73296;SDS011;61524;50.938;11.396;2023-06-01T03:55:17;4.30;;;1.83;;
73296;SDS011;61524;50.938;11.396;2023-06-01T03:57:44;4.47;;;1.90;;
73296;SDS011;61524;50.938;11.396;2023-06-01T04:00:10;5.07;;;2.22;;
73296;SDS011;61524;50.938;11.396;2023-06-01T04:02:48;4.68;;;2.50;;
73296;SDS011;61524;50.938;11.396;2023-06-01T04:05:17;4.85;;;1.95;;
73296;SDS011;61524;50.938;11.396;2023-06-01T04:07:47;3.17;;;1.70;;
73296;SDS011;61524;50.938;11.396;2023-06-01T04:10:14;4.50;;;1.98;;
73296;SDS011;61524;50.938;11.396;2023-06-01T04:12:42;5.82;;;1.77;;
73296;SDS011;61524;50.938;11.396;2023-06-01T04:15:09;3.53;;;1.75;;
73296;SDS011;61524;50.938;11.396;2023-06-01T04:17:38;3.58;;;2.05;;
73296;SDS011;61524;50.938;11.396;2023-06-01T04:20:05;4.97;;;1.55;;
73296;SDS011;61524;50.938;11.396;2023-06-01T04:22:32;4.43;;;2.38;;
73296;SDS011;61524;50.938;11.396;2023-06-01T04:24:58;4.07;;;1.73;;
73296;SDS011;61524;50.938;11.396;2023-06-01T04:27:23;7.40;;;2.30;;
73296;SDS011;61524;50.938;11.396;2023-06-01T04:29:49;4.30;;;1.92;;
73296;SDS011;61524;50.938;11.396;2023-06-01T04:32:16;3.92;;;1.75;;
73296;SDS011;61524;50.938;11.396;2023-06-01T04:34:46;4.22;;;1.83;;
73296;SDS011;61524;50.938;11.396;2023-06-01T04:37:15;5.05;;;1.70;;
73296;SDS011;61524;50.938;11.396;2023-06-01T04:39:40;4.22;;;1.90;;
73296;SDS011;61524;50.938;11.396;2023-06-01T04:42:07;5.30;;;2.35;;
73296;SDS011;61524;50.938;11.396;2023-06-01T04:44:33;3.92;;;1.75;;
73296;SDS011;61524;50.938;11.396;2023-06-01T04:46:59;4.50;;;2.10;;
73296;SDS011;61524;50.938;11.396;2023-06-01T04:49:28;4.80;;;2.00;;
73296;SDS011;61524;50.938;11.396;2023-06-01T04:51:55;6.18;;;1.92;;
73296;SDS011;61524;50.938;11.396;2023-06-01T04:54:20;5.85;;;2.17;;
73296;SDS011;61524;50.938;11.396;2023-06-01T04:56:45;5.57;;;2.50;;
73296;SDS011;61524;50.938;11.396;2023-06-01T04:59:11;4.82;;;2.45;;
73296;SDS011;61524;50.938;11.396;2023-06-01T05:01:37;5.90;;;1.98;;
73296;SDS011;61524;50.938;11.396;2023-06-01T05:04:04;5.03;;;2.10;;
73296;SDS011;61524;50.938;11.396;2023-06-01T05:06:29;5.25;;;2.42;;
73296;SDS011;61524;50.938;11.396;2023-06-01T05:08:55;5.00;;;2.45;;
73296;SDS011;61524;50.938;11.396;2023-06-01T05:11:21;5.88;;;2.28;;
73296;SDS011;61524;50.938;11.396;2023-06-01T05:13:46;5.18;;;2.08;;
73296;SDS011;61524;50.938;11.396;2023-06-01T05:16:12;5.20;;;2.10;;
73296;SDS011;61524;50.938;11.396;2023-06-01T05:18:37;4.95;;;2.65;;
73296;SDS011;61524;50.938;11.396;2023-06-01T05:21:03;7.57;;;2.85;;
73296;SDS011;61524;50.938;11.396;2023-06-01T05:23:28;4.82;;;2.40;;
73296;SDS011;61524;50.938;11.396;2023-06-01T05:25:54;3.72;;;2.00;;
73296;SDS011;61524;50.938;11.396;2023-06-01T05:28:27;4.10;;;1.90;;
73296;SDS011;61524;50.938;11.396;2023-06-01T05:30:56;4.65;;;2.47;;
73296;SDS011;61524;50.938;11.396;2023-06-01T05:33:21;5.05;;;2.05;;
73296;SDS011;61524;50.938;11.396;2023-06-01T05:35:47;3.97;;;2.10;;
73296;SDS011;61524;50.938;11.396;2023-06-01T05:38:12;5.90;;;2.10;;
73296;SDS011;61524;50.938;11.396;2023-06-01T05:40:38;4.07;;;1.90;;
73296;SDS011;61524;50.938;11.396;2023-06-01T05:43:03;5.28;;;2.35;;
73296;SDS011;61524;50.938;11.396;2023-06-01T05:45:29;4.57;;;1.70;;
73296;SDS011;61524;50.938;11.396;2023-06-01T05:47:54;6.78;;;2.10;;
73296;SDS011;61524;50.938;11.396;2023-06-01T05:50:20;5.10;;;2.40;;
73296;SDS011;61524;50.938;11.396;2023-06-01T05:52:45;4.35;;;2.08;;
73296;SDS011;61524;50.938;11.396;2023-06-01T05:55:11;3.88;;;1.80;;
73296;SDS011;61524;50.938;11.396;2023-06-01T05:57:36;5.45;;;2.47;;
73296;SDS011;61524;50.938;11.396;2023-06-01T06:00:02;6.53;;;2.50;;
73296;SDS011;61524;50.938;11.396;2023-06-01T06:02:32;6.22;;;2.20;;
73296;SDS011;61524;50.938;11.396;2023-06-01T06:04:58;6.63;;;2.95;;
73296;SDS011;61524;50.938;11.396;2023-06-01T06:07:23;3.70;;;1.90;;
73296;SDS011;61524;50.938;11.396;2023-06-01T06:09:48;4.82;;;2.15;;
73296;SDS011;61524;50.938;11.396;2023-06-01T06:12:14;4.50;;;2.35;;
73296;SDS011;61524;50.938;11.396;2023-06-01T06:14:39;3.83;;;1.70;;
73296;SDS011;61524;50.938;11.396;2023-06-01T06:17:05;4.78;;;2.20;;
73296;SDS011;61524;50.938;11.396;2023-06-01T06:19:30;4.00;;;2.10;;
73296;SDS011;61524;50.938;11.396;2023-06-01T06:21:56;5.88;;;2.22;;
73296;SDS011;61524;50.938;11.396;2023-06-01T06:24:21;3.28;;;1.85;;
73296;SDS011;61524;50.938;11.396;2023-06-01T06:26:47;4.75;;;2.58;;
73296;SDS011;61524;50.938;11.396;2023-06-01T06:29:12;5.20;;;2.13;;
73296;SDS011;61524;50.938;11.396;2023-06-01T06:31:38;6.55;;;2.33;;
73296;SDS011;61524;50.938;11.396;2023-06-01T06:34:03;4.10;;;1.73;;
73296;SDS011;61524;50.938;11.396;2023-06-01T06:36:29;4.43;;;2.13;;
73296;SDS011;61524;50.938;11.396;2023-06-01T06:38:54;4.18;;;2.10;;
73296;SDS011;61524;50.938;11.396;2023-06-01T06:41:19;3.55;;;1.88;;
73296;SDS011;61524;50.938;11.396;2023-06-01T06:43:46;3.72;;;2.00;;
73296;SDS011;61524;50.938;11.396;2023-06-01T06:46:11;5.18;;;1.92;;
73296;SDS011;61524;50.938;11.396;2023-06-01T06:48:36;4.32;;;2.22;;
73296;SDS011;61524;50.938;11.396;2023-06-01T06:51:02;6.30;;;1.98;;
73296;SDS011;61524;50.938;11.396;2023-06-01T06:53:27;4.38;;;2.50;;
73296;SDS011;61524;50.938;11.396;2023-06-01T06:55:53;4.38;;;2.55;;
73296;SDS011;61524;50.938;11.396;2023-06-01T06:58:18;5.57;;;1.70;;
73296;SDS011;61524;50.938;11.396;2023-06-01T07:00:44;7.97;;;2.60;;
73296;SDS011;61524;50.938;11.396;2023-06-01T07:03:09;5.20;;;1.60;;
73296;SDS011;61524;50.938;11.396;2023-06-01T07:05:35;4.57;;;1.65;;
73296;SDS011;61524;50.938;11.396;2023-06-01T07:08:00;7.85;;;1.95;;
73296;SDS011;61524;50.938;11.396;2023-06-01T07:10:26;5.05;;;2.38;;
73296;SDS011;61524;50.938;11.396;2023-06-01T07:12:51;3.78;;;1.67;;
73296;SDS011;61524;50.938;11.396;2023-06-01T07:15:17;4.90;;;2.20;;
73296;SDS011;61524;50.938;11.396;2023-06-01T07:17:42;5.57;;;1.90;;
73296;SDS011;61524;50.938;11.396;2023-06-01T07:20:08;4.18;;;1.58;;
73296;SDS011;61524;50.938;11.396;2023-06-01T07:22:37;3.80;;;2.35;;
73296;SDS011;61524;50.938;11.396;2023-06-01T07:25:05;4.40;;;1.80;;
73296;SDS011;61524;50.938;11.396;2023-06-01T07:27:32;4.22;;;1.85;;
73296;SDS011;61524;50.938;11.396;2023-06-01T07:30:01;4.63;;;1.52;;
73296;SDS011;61524;50.938;11.396;2023-06-01T07:32:27;5.05;;;1.95;;
73296;SDS011;61524;50.938;11.396;2023-06-01T07:34:53;4.13;;;1.75;;
73296;SDS011;61524;50.938;11.396;2023-06-01T07:37:18;5.13;;;1.80;;
73296;SDS011;61524;50.938;11.396;2023-06-01T07:39:47;4.50;;;2.00;;
73296;SDS011;61524;50.938;11.396;2023-06-01T07:42:14;5.10;;;2.00;;
73296;SDS011;61524;50.938;11.396;2023-06-01T07:44:40;4.22;;;1.80;;
73296;SDS011;61524;50.938;11.396;2023-06-01T07:47:05;5.00;;;2.25;;
73296;SDS011;61524;50.938;11.396;2023-06-01T07:49:31;3.25;;;1.73;;
73296;SDS011;61524;50.938;11.396;2023-06-01T07:51:56;5.57;;;1.75;;
73296;SDS011;61524;50.938;11.396;2023-06-01T07:54:23;4.40;;;2.10;;
73296;SDS011;61524;50.938;11.396;2023-06-01T07:56:49;6.18;;;1.85;;
73296;SDS011;61524;50.938;11.396;2023-06-01T07:59:15;3.67;;;1.90;;
73296;SDS011;61524;50.938;11.396;2023-06-01T08:01:40;5.50;;;1.73;;
73296;SDS011;61524;50.938;11.396;2023-06-01T08:04:06;4.70;;;2.00;;
73296;SDS011;61524;50.938;11.396;2023-06-01T08:06:31;6.93;;;1.73;;
73296;SDS011;61524;50.938;11.396;2023-06-01T08:09:00;5.30;;;1.80;;
73296;SDS011;61524;50.938;11.396;2023-06-01T08:11:26;7.25;;;2.53;;
73296;SDS011;61524;50.938;11.396;2023-06-01T08:13:52;4.30;;;1.60;;
73296;SDS011;61524;50.938;11.396;2023-06-01T08:16:17;7.75;;;2.08;;
73296;SDS011;61524;50.938;11.396;2023-06-01T08:18:43;5.82;;;1.85;;
73296;SDS011;61524;50.938;11.396;2023-06-01T08:21:09;5.88;;;2.20;;
73296;SDS011;61524;50.938;11.396;2023-06-01T08:23:34;5.28;;;1.88;;
73296;SDS011;61524;50.938;11.396;2023-06-01T08:26:00;5.07;;;2.17;;
73296;SDS011;61524;50.938;11.396;2023-06-01T08:28:26;3.88;;;1.75;;
73296;SDS011;61524;50.938;11.396;2023-06-01T08:30:51;4.72;;;1.98;;
73296;SDS011;61524;50.938;11.396;2023-06-01T08:33:17;5.30;;;2.15;;
73296;SDS011;61524;50.938;11.396;2023-06-01T08:35:42;6.22;;;2.00;;
73296;SDS011;61524;50.938;11.396;2023-06-01T08:38:08;4.57;;;1.63;;
73296;SDS011;61524;50.938;11.396;2023-06-01T08:40:33;4.35;;;1.67;;
73296;SDS011;61524;50.938;11.396;2023-06-01T08:43:18;6.22;;;2.13;;
73296;SDS011;61524;50.938;11.396;2023-06-01T08:45:45;5.30;;;2.10;;
73296;SDS011;61524;50.938;11.396;2023-06-01T08:48:15;4.50;;;1.55;;
73296;SDS011;61524;50.938;11.396;2023-06-01T08:50:47;5.30;;;1.58;;
73296;SDS011;61524;50.938;11.396;2023-06-01T08:53:18;5.28;;;1.98;;
73296;SDS011;61524;50.938;11.396;2023-06-01T08:55:46;4.53;;;1.70;;
73296;SDS011;61524;50.938;11.396;2023-06-01T08:58:16;5.90;;;1.98;;
73296;SDS011;61524;50.938;11.396;2023-06-01T09:00:41;6.35;;;2.47;;
73296;SDS011;61524;50.938;11.396;2023-06-01T09:03:07;4.25;;;1.95;;
73296;SDS011;61524;50.938;11.396;2023-06-01T09:05:33;5.80;;;1.70;;
73296;SDS011;61524;50.938;11.396;2023-06-01T09:07:58;6.50;;;2.03;;
73296;SDS011;61524;50.938;11.396;2023-06-01T09:10:24;4.57;;;1.98;;
73296;SDS011;61524;50.938;11.396;2023-06-01T09:12:55;4.22;;;2.08;;
73296;SDS011;61524;50.938;11.396;2023-06-01T09:15:21;4.85;;;2.00;;
73296;SDS011;61524;50.938;11.396;2023-06-01T09:17:48;5.60;;;1.63;;
73296;SDS011;61524;50.938;11.396;2023-06-01T09:20:25;5.93;;;1.83;;
73296;SDS011;61524;50.938;11.396;2023-06-01T09:22:52;5.07;;;2.25;;
73296;SDS011;61524;50.938;11.396;2023-06-01T09:25:28;5.13;;;2.25;;
73296;SDS011;61524;50.938;11.396;2023-06-01T09:27:56;4.82;;;1.75;;
73296;SDS011;61524;50.938;11.396;2023-06-01T09:30:24;4.65;;;1.77;;
73296;SDS011;61524;50.938;11.396;2023-06-01T09:32:51;6.72;;;1.90;;
73296;SDS011;61524;50.938;11.396;2023-06-01T09:38:22;4.95;;;1.80;;
73296;SDS011;61524;50.938;11.396;2023-06-01T09:40:56;6.47;;;1.60;;
73296;SDS011;61524;50.938;11.396;2023-06-01T09:43:23;5.13;;;1.58;;
73296;SDS011;61524;50.938;11.396;2023-06-01T09:48:33;5.68;;;1.95;;
73296;SDS011;61524;50.938;11.396;2023-06-01T09:50:58;4.10;;;2.00;;
73296;SDS011;61524;50.938;11.396;2023-06-01T09:53:24;4.55;;;1.73;;
73296;SDS011;61524;50.938;11.396;2023-06-01T09:56:00;6.65;;;2.40;;
73296;SDS011;61524;50.938;11.396;2023-06-01T09:58:26;4.13;;;1.75;;
73296;SDS011;61524;50.938;11.396;2023-06-01T10:03:19;7.80;;;2.55;;
73296;SDS011;61524;50.938;11.396;2023-06-01T10:05:47;4.68;;;2.03;;
73296;SDS011;61524;50.938;11.396;2023-06-01T10:08:15;7.72;;;1.88;;
73296;SDS011;61524;50.938;11.396;2023-06-01T10:10:42;4.75;;;2.15;;
73296;SDS011;61524;50.938;11.396;2023-06-01T10:13:11;5.05;;;2.55;;
73296;SDS011;61524;50.938;11.396;2023-06-01T10:15:37;4.88;;;1.90;;
73296;SDS011;61524;50.938;11.396;2023-06-01T10:18:03;12.48;;;2.90;;
73296;SDS011;61524;50.938;11.396;2023-06-01T10:20:33;9.63;;;2.10;;
73296;SDS011;61524;50.938;11.396;2023-06-01T10:23:00;7.63;;;2.00;;
73296;SDS011;61524;50.938;11.396;2023-06-01T10:25:28;6.68;;;2.35;;
73296;SDS011;61524;50.938;11.396;2023-06-01T10:28:02;4.63;;;1.80;;
73296;SDS011;61524;50.938;11.396;2023-06-01T10:30:29;18.67;;;3.03;;
73296;SDS011;61524;50.938;11.396;2023-06-01T10:32:55;10.68;;;2.80;;
73296;SDS011;61524;50.938;11.396;2023-06-01T10:38:34;5.95;;;2.83;;
73296;SDS011;61524;50.938;11.396;2023-06-01T10:43:38;4.70;;;1.98;;
73296;SDS011;61524;50.938;11.396;2023-06-01T10:49:00;4.85;;;1.90;;
73296;SDS011;61524;50.938;11.396;2023-06-01T10:51:27;5.57;;;2.10;;
73296;SDS011;61524;50.938;11.396;2023-06-01T10:53:53;5.15;;;1.92;;
73296;SDS011;61524;50.938;11.396;2023-06-01T10:56:20;13.95;;;3.28;;
73296;SDS011;61524;50.938;11.396;2023-06-01T10:59:32;6.50;;;1.80;;
73296;SDS011;61524;50.938;11.396;2023-06-01T11:01:42;4.05;;;1.60;;
73296;SDS011;61524;50.938;11.396;2023-06-01T11:04:09;8.07;;;1.95;;
73296;SDS011;61524;50.938;11.396;2023-06-01T11:06:36;4.88;;;1.75;;
73296;SDS011;61524;50.938;11.396;2023-06-01T11:09:05;5.00;;;1.90;;
73296;SDS011;61524;50.938;11.396;2023-06-01T11:14:17;4.13;;;1.95;;
73296;SDS011;61524;50.938;11.396;2023-06-01T11:16:43;3.55;;;1.50;;
73296;SDS011;61524;50.938;11.396;2023-06-01T11:21:42;5.00;;;1.80;;
73296;SDS011;61524;50.938;11.396;2023-06-01T11:24:10;6.57;;;1.60;;
73296;SDS011;61524;50.938;11.396;2023-06-01T11:26:46;3.47;;;1.73;;
73296;SDS011;61524;50.938;11.396;2023-06-01T11:29:22;5.18;;;1.90;;
73296;SDS011;61524;50.938;11.396;2023-06-01T11:31:52;5.85;;;1.52;;
73296;SDS011;61524;50.938;11.396;2023-06-01T11:36:59;2.97;;;1.60;;
73296;SDS011;61524;50.938;11.396;2023-06-01T11:39:26;4.93;;;1.80;;
73296;SDS011;61524;50.938;11.396;2023-06-01T11:42:13;5.07;;;1.63;;
73296;SDS011;61524;50.938;11.396;2023-06-01T11:44:41;3.50;;;1.48;;
73296;SDS011;61524;50.938;11.396;2023-06-01T11:47:08;4.13;;;1.60;;
73296;SDS011;61524;50.938;11.396;2023-06-01T11:52:08;4.60;;;2.20;;
73296;SDS011;61524;50.938;11.396;2023-06-01T11:54:34;3.80;;;1.83;;
73296;SDS011;61524;50.938;11.396;2023-06-01T11:57:01;5.88;;;2.63;;
73296;SDS011;61524;50.938;11.396;2023-06-01T11:59:42;5.97;;;2.35;;
73296;SDS011;61524;50.938;11.396;2023-06-01T12:02:22;4.95;;;2.17;;
73296;SDS011;61524;50.938;11.396;2023-06-01T12:05:01;5.43;;;2.80;;
73296;SDS011;61524;50.938;11.396;2023-06-01T12:07:49;5.70;;;3.00;;
73296;SDS011;61524;50.938;11.396;2023-06-01T12:10:20;5.57;;;3.58;;
73296;SDS011;61524;50.938;11.396;2023-06-01T12:12:46;5.57;;;3.28;;
73296;SDS011;61524;50.938;11.396;2023-06-01T12:15:16;5.45;;;3.38;;
73296;SDS011;61524;50.938;11.396;2023-06-01T12:17:52;5.82;;;3.20;;
73296;SDS011;61524;50.938;11.396;2023-06-01T12:22:58;9.43;;;3.38;;
73296;SDS011;61524;50.938;11.396;2023-06-01T12:25:28;7.32;;;3.90;;
73296;SDS011;61524;50.938;11.396;2023-06-01T12:28:04;7.20;;;3.85;;
73296;SDS011;61524;50.938;11.396;2023-06-01T12:30:31;6.63;;;3.58;;
73296;SDS011;61524;50.938;11.396;2023-06-01T12:35:23;6.30;;;3.65;;
73296;SDS011;61524;50.938;11.396;2023-06-01T12:38:04;7.43;;;4.20;;
73296;SDS011;61524;50.938;11.396;2023-06-01T12:40:37;7.28;;;4.30;;
73296;SDS011;61524;50.938;11.396;2023-06-01T12:45:36;8.65;;;4.18;;
73296;SDS011;61524;50.938;11.396;2023-06-01T12:48:02;6.93;;;3.58;;
73296;SDS011;61524;50.938;11.396;2023-06-01T12:50:28;7.70;;;3.72;;
73296;SDS011;61524;50.938;11.396;2023-06-01T12:52:54;6.97;;;3.90;;
73296;SDS011;61524;50.938;11.396;2023-06-01T12:55:19;6.90;;;4.00;;
73296;SDS011;61524;50.938;11.396;2023-06-01T12:57:51;8.32;;;3.92;;
73296;SDS011;61524;50.938;11.396;2023-06-01T13:00:20;6.75;;;3.70;;
73296;SDS011;61524;50.938;11.396;2023-06-01T13:05:14;7.20;;;3.63;;
73296;SDS011;61524;50.938;11.396;2023-06-01T13:07:42;7.88;;;4.43;;
73296;SDS011;61524;50.938;11.396;2023-06-01T13:10:08;7.85;;;4.13;;
73296;SDS011;61524;50.938;11.396;2023-06-01T13:12:35;7.25;;;3.90;;
73296;SDS011;61524;50.938;11.396;2023-06-01T13:15:01;8.02;;;4.13;;
73296;SDS011;61524;50.938;11.396;2023-06-01T13:17:28;6.43;;;3.88;;
73296;SDS011;61524;50.938;11.396;2023-06-01T13:19:53;8.98;;;3.72;;
73296;SDS011;61524;50.938;11.396;2023-06-01T13:22:19;7.85;;;4.28;;
73296;SDS011;61524;50.938;11.396;2023-06-01T13:24:46;7.32;;;3.67;;
73296;SDS011;61524;50.938;11.396;2023-06-01T13:27:12;7.07;;;3.88;;
73296;SDS011;61524;50.938;11.396;2023-06-01T13:29:37;7.47;;;3.88;;
73296;SDS011;61524;50.938;11.396;2023-06-01T13:32:03;6.50;;;3.78;;
73296;SDS011;61524;50.938;11.396;2023-06-01T13:34:28;6.72;;;3.67;;
73296;SDS011;61524;50.938;11.396;2023-06-01T13:36:54;6.40;;;3.58;;
73296;SDS011;61524;50.938;11.396;2023-06-01T13:39:22;6.47;;;3.65;;
73296;SDS011;61524;50.938;11.396;2023-06-01T13:41:47;7.53;;;4.15;;
73296;SDS011;61524;50.938;11.396;2023-06-01T13:44:13;7.25;;;3.42;;
73296;SDS011;61524;50.938;11.396;2023-06-01T13:46:39;7.60;;;3.88;;
73296;SDS011;61524;50.938;11.396;2023-06-01T13:49:04;6.07;;;3.30;;
73296;SDS011;61524;50.938;11.396;2023-06-01T13:51:29;8.13;;;3.40;;
73296;SDS011;61524;50.938;11.396;2023-06-01T13:53:55;8.77;;;3.80;;
73296;SDS011;61524;50.938;11.396;2023-06-01T13:56:21;7.18;;;3.50;;
73296;SDS011;61524;50.938;11.396;2023-06-01T13:58:48;7.05;;;3.78;;
73296;SDS011;61524;50.938;11.396;2023-06-01T14:01:13;8.93;;;4.50;;
73296;SDS011;61524;50.938;11.396;2023-06-01T14:03:39;7.57;;;3.72;;
73296;SDS011;61524;50.938;11.396;2023-06-01T14:06:04;6.88;;;3.90;;
73296;SDS011;61524;50.938;11.396;2023-06-01T14:08:30;8.25;;;3.35;;
73296;SDS011;61524;50.938;11.396;2023-06-01T14:10:56;7.13;;;3.10;;
73296;SDS011;61524;50.938;11.396;2023-06-01T14:13:21;6.55;;;3.40;;
73296;SDS011;61524;50.938;11.396;2023-06-01T14:15:47;7.70;;;3.38;;
73296;SDS011;61524;50.938;11.396;2023-06-01T14:18:13;7.55;;;3.35;;
73296;SDS011;61524;50.938;11.396;2023-06-01T14:20:38;6.05;;;3.30;;
73296;SDS011;61524;50.938;11.396;2023-06-01T14:23:04;5.15;;;3.53;;
73296;SDS011;61524;50.938;11.396;2023-06-01T14:25:32;6.80;;;3.25;;
73296;SDS011;61524;50.938;11.396;2023-06-01T14:27:58;5.15;;;3.17;;
73296;SDS011;61524;50.938;11.396;2023-06-01T14:30:23;4.63;;;2.80;;
73296;SDS011;61524;50.938;11.396;2023-06-01T14:32:51;6.07;;;3.78;;
73296;SDS011;61524;50.938;11.396;2023-06-01T14:35:16;5.75;;;3.42;;
73296;SDS011;61524;50.938;11.396;2023-06-01T14:37:43;6.65;;;3.28;;
73296;SDS011;61524;50.938;11.396;2023-06-01T14:40:10;6.93;;;3.38;;
73296;SDS011;61524;50.938;11.396;2023-06-01T14:42:39;10.00;;;3.75;;
73296;SDS011;61524;50.938;11.396;2023-06-01T14:45:05;5.45;;;3.97;;
73296;SDS011;61524;50.938;11.396;2023-06-01T14:47:31;7.30;;;3.53;;
73296;SDS011;61524;50.938;11.396;2023-06-01T14:49:57;6.47;;;3.33;;
73296;SDS011;61524;50.938;11.396;2023-06-01T14:52:23;8.15;;;3.85;;
73296;SDS011;61524;50.938;11.396;2023-06-01T14:54:48;6.93;;;4.32;;
73296;SDS011;61524;50.938;11.396;2023-06-01T14:57:14;6.65;;;3.90;;
73296;SDS011;61524;50.938;11.396;2023-06-01T14:59:40;6.55;;;4.15;;
73296;SDS011;61524;50.938;11.396;2023-06-01T15:02:06;8.18;;;3.80;;
73296;SDS011;61524;50.938;11.396;2023-06-01T15:04:32;5.75;;;4.18;;
73296;SDS011;61524;50.938;11.396;2023-06-01T15:06:58;9.00;;;4.15;;
73296;SDS011;61524;50.938;11.396;2023-06-01T15:09:24;7.75;;;4.80;;
73296;SDS011;61524;50.938;11.396;2023-06-01T15:11:49;7.07;;;4.70;;
73296;SDS011;61524;50.938;11.396;2023-06-01T15:14:15;7.72;;;4.55;;
73296;SDS011;61524;50.938;11.396;2023-06-01T15:16:41;6.97;;;4.40;;
73296;SDS011;61524;50.938;11.396;2023-06-01T15:19:07;7.53;;;4.13;;
73296;SDS011;61524;50.938;11.396;2023-06-01T15:21:34;7.80;;;4.03;;
73296;SDS011;61524;50.938;11.396;2023-06-01T15:23:59;6.35;;;4.03;;
73296;SDS011;61524;50.938;11.396;2023-06-01T15:26:25;5.78;;;3.75;;